Jonesboro Municipal Airport
KJBR : now visible

Airfield :











YOU CAN JOIN US ON...

 
LOGIN :

Register | Disclaimer

   EN    FR    IT 

 









Legend :    VFR   Marginal VFR   IFR   Intensive IFR   Very Intensive IFR
Visi :
Ceiling :
>= 8 km
>= 3000ft
5 to 8 km
1000 to 3000 ft
1500m to 5 km
500 to 1000 ft
800 to 1500m
200 to 500 ft
< 800m
< 200 ft
Symbols :   Thunderstorms  Fog  Heavy snow  Heavy precipitations  Wind > 20 kt






- Airport Elevation : 262 ft
- IATA code : JBR


KJBR - Jonesboro Municipal

CURRENT METAR :
  • 171053Z AUTO 23009KT 10SM CLR 20/18 A2992 RMK AO2 SLP127 T02000178 $

EXPIRED METARs :
  • 170953Z AUTO 22014KT 10SM CLR 21/18 A2989 RMK AO2 SLP118 T02060178 $
  • 170853Z AUTO 22012KT 10SM CLR 21/18 A2988 RMK AO2 SLP116 T02060183 53004 $
  • 170753Z AUTO 21011KT 10SM FEW032 21/18 A2987 RMK AO2 SLP111 T02060183 $
  • 170653Z AUTO 21009KT 10SM BKN038 21/19 A2987 RMK AO2 SLP110 T02060189 $

TAF KJBR
Valid from the 17 at 12:00 until the 18 at 12:00 UTC


171129Z 1712/1812 22012KT P6SM BKN250
TEMPO 1713/1715 BKN012
FM171500 24010KT P6SM BKN250
FM180000 VRB03KT P6SM BKN250
FM181000 16003KT P6SM BKN100
KZME FIR / North America



MET'MAP, your aeronautical weather chart ! - Copyright ORBIFLY December 2007 - Disclaimer

ORBIFLY MET'MAP TEAM :

Programming & Development : Alexandra Zaïnal
Original concept : Baudouin d'Aumeries
Technical & hardware support : Manuel Goepfert
Assistance : Marc-Olivier Méhu




SOURCES & CREDITS :

   NOAA       Earth
Advisory